Terminal Aerodrome Forecast
Issued by NWS Charleston, SC

Home | Current Version | Previous Version | Text Only | Print | Product List | Glossary On
Versions: 1 2 3 4 5 6 7 8 9 10 11 12 13 14 15 16
000
FTUS42 KCHS 221100
TAFSAV
TAF
KSAV 221135Z 2212/2312 27006KT P6SM SCT090
     FM221800 33008KT P6SM VCSH SCT045 BKN200
      TEMPO 2219/2223 VRB15G25KT 6SM -TSRA BR BKN040CB
     FM222300 03006KT 6SM -SHRA BR SCT012 BKN025
     FM230400 01006KT P6SM VCSH SCT015 BKN150=

USA.gov is the U.S. government's official web portal to all federal, state and local government web resources and services.